sensor_id;sensor_type;location;lat;lon;timestamp;P1;durP1;ratioP1;P2;durP2;ratioP2
65031;SDS011;51593;55.714;37.436;2022-09-28T00:01:20;7.25;;;4.45;;
65031;SDS011;51593;55.714;37.436;2022-09-28T00:03:48;6.85;;;4.38;;
65031;SDS011;51593;55.714;37.436;2022-09-28T00:06:19;6.00;;;4.20;;
65031;SDS011;51593;55.714;37.436;2022-09-28T00:08:47;7.05;;;4.60;;
65031;SDS011;51593;55.714;37.436;2022-09-28T00:11:17;7.82;;;4.60;;
65031;SDS011;51593;55.714;37.436;2022-09-28T00:13:43;11.43;;;4.80;;
65031;SDS011;51593;55.714;37.436;2022-09-28T00:16:14;7.38;;;4.55;;
65031;SDS011;51593;55.714;37.436;2022-09-28T00:18:41;8.32;;;4.47;;
65031;SDS011;51593;55.714;37.436;2022-09-28T00:21:12;7.22;;;4.43;;
65031;SDS011;51593;55.714;37.436;2022-09-28T00:23:46;6.95;;;4.70;;
65031;SDS011;51593;55.714;37.436;2022-09-28T00:26:31;7.03;;;4.50;;
65031;SDS011;51593;55.714;37.436;2022-09-28T00:28:58;6.35;;;4.18;;
65031;SDS011;51593;55.714;37.436;2022-09-28T00:31:30;6.75;;;3.92;;
65031;SDS011;51593;55.714;37.436;2022-09-28T00:33:57;7.72;;;3.90;;
65031;SDS011;51593;55.714;37.436;2022-09-28T00:36:25;8.20;;;4.50;;
65031;SDS011;51593;55.714;37.436;2022-09-28T00:41:58;6.03;;;3.70;;
65031;SDS011;51593;55.714;37.436;2022-09-28T00:46:50;6.05;;;3.67;;
65031;SDS011;51593;55.714;37.436;2022-09-28T00:49:17;6.03;;;3.95;;
65031;SDS011;51593;55.714;37.436;2022-09-28T00:51:56;8.57;;;4.35;;
65031;SDS011;51593;55.714;37.436;2022-09-28T00:54:22;7.35;;;4.13;;
65031;SDS011;51593;55.714;37.436;2022-09-28T00:56:47;7.18;;;3.97;;
65031;SDS011;51593;55.714;37.436;2022-09-28T00:59:13;6.82;;;4.13;;
65031;SDS011;51593;55.714;37.436;2022-09-28T01:01:39;5.57;;;3.92;;
65031;SDS011;51593;55.714;37.436;2022-09-28T01:04:05;5.35;;;3.80;;
65031;SDS011;51593;55.714;37.436;2022-09-28T01:06:33;10.27;;;4.00;;
65031;SDS011;51593;55.714;37.436;2022-09-28T01:09:01;6.72;;;3.45;;
65031;SDS011;51593;55.714;37.436;2022-09-28T01:11:32;5.60;;;3.40;;
65031;SDS011;51593;55.714;37.436;2022-09-28T01:14:03;4.90;;;3.33;;
65031;SDS011;51593;55.714;37.436;2022-09-28T01:16:39;5.28;;;3.30;;
65031;SDS011;51593;55.714;37.436;2022-09-28T01:27:58;6.50;;;4.15;;
65031;SDS011;51593;55.714;37.436;2022-09-28T01:30:33;5.40;;;3.50;;
65031;SDS011;51593;55.714;37.436;2022-09-28T01:35:40;6.97;;;4.00;;
65031;SDS011;51593;55.714;37.436;2022-09-28T01:38:11;6.10;;;3.72;;
65031;SDS011;51593;55.714;37.436;2022-09-28T01:40:42;6.75;;;3.70;;
65031;SDS011;51593;55.714;37.436;2022-09-28T01:43:10;5.55;;;3.60;;
65031;SDS011;51593;55.714;37.436;2022-09-28T01:48:22;5.78;;;3.70;;
65031;SDS011;51593;55.714;37.436;2022-09-28T01:50:56;6.10;;;3.70;;
65031;SDS011;51593;55.714;37.436;2022-09-28T01:53:28;5.85;;;3.42;;
65031;SDS011;51593;55.714;37.436;2022-09-28T01:55:58;5.38;;;3.20;;
65031;SDS011;51593;55.714;37.436;2022-09-28T02:01:18;5.85;;;3.60;;
65031;SDS011;51593;55.714;37.436;2022-09-28T02:04:00;5.03;;;3.47;;
65031;SDS011;51593;55.714;37.436;2022-09-28T02:06:33;5.97;;;3.47;;
65031;SDS011;51593;55.714;37.436;2022-09-28T02:09:06;4.30;;;2.92;;
65031;SDS011;51593;55.714;37.436;2022-09-28T02:11:46;5.15;;;3.50;;
65031;SDS011;51593;55.714;37.436;2022-09-28T02:14:16;5.97;;;3.95;;
65031;SDS011;51593;55.714;37.436;2022-09-28T02:16:45;6.32;;;3.60;;
65031;SDS011;51593;55.714;37.436;2022-09-28T02:19:16;5.28;;;3.45;;
65031;SDS011;51593;55.714;37.436;2022-09-28T02:24:54;7.30;;;3.17;;
65031;SDS011;51593;55.714;37.436;2022-09-28T02:30:01;5.47;;;3.40;;
65031;SDS011;51593;55.714;37.436;2022-09-28T02:32:28;5.75;;;3.08;;
65031;SDS011;51593;55.714;37.436;2022-09-28T02:34:57;7.13;;;3.70;;
65031;SDS011;51593;55.714;37.436;2022-09-28T02:37:24;4.82;;;3.50;;
65031;SDS011;51593;55.714;37.436;2022-09-28T02:39:50;5.95;;;3.50;;
65031;SDS011;51593;55.714;37.436;2022-09-28T02:42:20;7.15;;;3.50;;
65031;SDS011;51593;55.714;37.436;2022-09-28T02:58:20;4.40;;;3.13;;
65031;SDS011;51593;55.714;37.436;2022-09-28T03:03:31;6.32;;;3.70;;
65031;SDS011;51593;55.714;37.436;2022-09-28T03:06:11;6.10;;;3.20;;
65031;SDS011;51593;55.714;37.436;2022-09-28T03:11:42;4.93;;;3.13;;
65031;SDS011;51593;55.714;37.436;2022-09-28T03:14:11;7.53;;;3.78;;
65031;SDS011;51593;55.714;37.436;2022-09-28T03:16:56;5.18;;;3.55;;
65031;SDS011;51593;55.714;37.436;2022-09-28T03:19:23;7.68;;;3.60;;
65031;SDS011;51593;55.714;37.436;2022-09-28T03:21:52;4.57;;;3.50;;
65031;SDS011;51593;55.714;37.436;2022-09-28T03:24:19;5.50;;;3.53;;
65031;SDS011;51593;55.714;37.436;2022-09-28T03:26:45;5.43;;;3.80;;
65031;SDS011;51593;55.714;37.436;2022-09-28T03:29:12;5.00;;;3.60;;
65031;SDS011;51593;55.714;37.436;2022-09-28T03:31:38;6.63;;;3.67;;
65031;SDS011;51593;55.714;37.436;2022-09-28T03:34:04;6.18;;;3.53;;
65031;SDS011;51593;55.714;37.436;2022-09-28T03:36:30;7.15;;;3.92;;
65031;SDS011;51593;55.714;37.436;2022-09-28T03:38:56;4.75;;;3.25;;
65031;SDS011;51593;55.714;37.436;2022-09-28T03:41:23;5.22;;;3.70;;
65031;SDS011;51593;55.714;37.436;2022-09-28T03:43:49;5.90;;;3.58;;
65031;SDS011;51593;55.714;37.436;2022-09-28T03:46:15;6.00;;;4.00;;
65031;SDS011;51593;55.714;37.436;2022-09-28T03:48:45;6.38;;;3.40;;
65031;SDS011;51593;55.714;37.436;2022-09-28T03:51:11;5.28;;;3.58;;
65031;SDS011;51593;55.714;37.436;2022-09-28T03:53:38;5.15;;;3.65;;
65031;SDS011;51593;55.714;37.436;2022-09-28T03:56:06;5.40;;;3.70;;
65031;SDS011;51593;55.714;37.436;2022-09-28T03:58:34;5.03;;;3.40;;
65031;SDS011;51593;55.714;37.436;2022-09-28T04:01:01;5.20;;;3.40;;
65031;SDS011;51593;55.714;37.436;2022-09-28T04:03:28;7.00;;;3.50;;
65031;SDS011;51593;55.714;37.436;2022-09-28T04:05:54;5.63;;;3.78;;
65031;SDS011;51593;55.714;37.436;2022-09-28T04:08:21;6.90;;;4.50;;
65031;SDS011;51593;55.714;37.436;2022-09-28T04:10:47;7.40;;;4.07;;
65031;SDS011;51593;55.714;37.436;2022-09-28T04:13:13;6.93;;;3.35;;
65031;SDS011;51593;55.714;37.436;2022-09-28T04:15:39;5.45;;;3.65;;
65031;SDS011;51593;55.714;37.436;2022-09-28T04:18:09;4.75;;;3.58;;
65031;SDS011;51593;55.714;37.436;2022-09-28T04:21:02;5.30;;;3.40;;
65031;SDS011;51593;55.714;37.436;2022-09-28T04:23:39;4.57;;;3.35;;
65031;SDS011;51593;55.714;37.436;2022-09-28T04:26:07;6.13;;;3.63;;
65031;SDS011;51593;55.714;37.436;2022-09-28T04:28:36;5.55;;;3.55;;
65031;SDS011;51593;55.714;37.436;2022-09-28T04:31:21;5.22;;;3.80;;
65031;SDS011;51593;55.714;37.436;2022-09-28T04:33:47;5.60;;;3.70;;
65031;SDS011;51593;55.714;37.436;2022-09-28T04:36:13;6.70;;;3.78;;
65031;SDS011;51593;55.714;37.436;2022-09-28T04:38:39;5.30;;;3.78;;
65031;SDS011;51593;55.714;37.436;2022-09-28T04:41:06;6.30;;;3.88;;
65031;SDS011;51593;55.714;37.436;2022-09-28T04:43:32;7.72;;;4.07;;
65031;SDS011;51593;55.714;37.436;2022-09-28T04:45:58;8.20;;;4.07;;
65031;SDS011;51593;55.714;37.436;2022-09-28T04:48:27;7.65;;;4.20;;
65031;SDS011;51593;55.714;37.436;2022-09-28T04:51:07;7.82;;;4.47;;
65031;SDS011;51593;55.714;37.436;2022-09-28T04:53:33;6.60;;;4.10;;
65031;SDS011;51593;55.714;37.436;2022-09-28T04:56:03;7.35;;;4.60;;
65031;SDS011;51593;55.714;37.436;2022-09-28T04:58:31;6.57;;;4.22;;
65031;SDS011;51593;55.714;37.436;2022-09-28T05:00:58;6.55;;;4.68;;
65031;SDS011;51593;55.714;37.436;2022-09-28T05:03:46;8.05;;;4.05;;
65031;SDS011;51593;55.714;37.436;2022-09-28T05:06:37;8.32;;;4.53;;
65031;SDS011;51593;55.714;37.436;2022-09-28T05:09:05;8.10;;;4.47;;
65031;SDS011;51593;55.714;37.436;2022-09-28T05:11:31;6.30;;;4.15;;
65031;SDS011;51593;55.714;37.436;2022-09-28T05:13:57;10.30;;;4.35;;
65031;SDS011;51593;55.714;37.436;2022-09-28T05:16:23;6.70;;;4.47;;
65031;SDS011;51593;55.714;37.436;2022-09-28T05:19:10;5.60;;;4.10;;
65031;SDS011;51593;55.714;37.436;2022-09-28T05:21:37;9.32;;;4.20;;
65031;SDS011;51593;55.714;37.436;2022-09-28T05:24:02;8.02;;;5.00;;
65031;SDS011;51593;55.714;37.436;2022-09-28T05:26:33;7.90;;;4.85;;
65031;SDS011;51593;55.714;37.436;2022-09-28T05:28:59;7.55;;;4.35;;
65031;SDS011;51593;55.714;37.436;2022-09-28T05:31:40;9.35;;;4.75;;
65031;SDS011;51593;55.714;37.436;2022-09-28T05:34:13;9.30;;;4.60;;
65031;SDS011;51593;55.714;37.436;2022-09-28T05:36:39;7.72;;;4.55;;
65031;SDS011;51593;55.714;37.436;2022-09-28T05:39:07;6.70;;;4.30;;
65031;SDS011;51593;55.714;37.436;2022-09-28T05:41:34;7.03;;;4.28;;
65031;SDS011;51593;55.714;37.436;2022-09-28T05:44:00;8.57;;;4.57;;
65031;SDS011;51593;55.714;37.436;2022-09-28T05:46:27;9.07;;;5.10;;
65031;SDS011;51593;55.714;37.436;2022-09-28T05:48:53;6.05;;;4.15;;
65031;SDS011;51593;55.714;37.436;2022-09-28T05:51:19;8.75;;;4.47;;
65031;SDS011;51593;55.714;37.436;2022-09-28T05:53:45;6.07;;;4.25;;
65031;SDS011;51593;55.714;37.436;2022-09-28T05:56:11;8.60;;;4.57;;
65031;SDS011;51593;55.714;37.436;2022-09-28T05:58:41;8.68;;;4.65;;
65031;SDS011;51593;55.714;37.436;2022-09-28T06:01:08;5.95;;;4.32;;
65031;SDS011;51593;55.714;37.436;2022-09-28T06:03:34;6.80;;;4.53;;
65031;SDS011;51593;55.714;37.436;2022-09-28T06:06:00;8.55;;;4.95;;
65031;SDS011;51593;55.714;37.436;2022-09-28T06:08:45;10.90;;;4.37;;
65031;SDS011;51593;55.714;37.436;2022-09-28T06:11:38;7.63;;;4.32;;
65031;SDS011;51593;55.714;37.436;2022-09-28T06:14:11;6.88;;;4.30;;
65031;SDS011;51593;55.714;37.436;2022-09-28T06:16:40;6.03;;;4.30;;
65031;SDS011;51593;55.714;37.436;2022-09-28T06:19:07;7.57;;;4.30;;
65031;SDS011;51593;55.714;37.436;2022-09-28T06:21:52;6.68;;;4.55;;
65031;SDS011;51593;55.714;37.436;2022-09-28T06:24:18;8.25;;;4.40;;
65031;SDS011;51593;55.714;37.436;2022-09-28T06:26:45;6.13;;;3.80;;
65031;SDS011;51593;55.714;37.436;2022-09-28T06:29:10;9.55;;;3.97;;
65031;SDS011;51593;55.714;37.436;2022-09-28T06:31:38;7.30;;;3.85;;
65031;SDS011;51593;55.714;37.436;2022-09-28T06:34:04;6.78;;;4.10;;
65031;SDS011;51593;55.714;37.436;2022-09-28T06:36:31;6.82;;;4.10;;
65031;SDS011;51593;55.714;37.436;2022-09-28T06:38:56;7.88;;;4.40;;
65031;SDS011;51593;55.714;37.436;2022-09-28T06:41:22;9.60;;;4.95;;
65031;SDS011;51593;55.714;37.436;2022-09-28T06:43:48;17.52;;;6.47;;
65031;SDS011;51593;55.714;37.436;2022-09-28T06:46:32;17.95;;;6.90;;
65031;SDS011;51593;55.714;37.436;2022-09-28T06:49:17;19.73;;;6.82;;
65031;SDS011;51593;55.714;37.436;2022-09-28T06:52:02;10.48;;;4.60;;
65031;SDS011;51593;55.714;37.436;2022-09-28T06:54:46;11.65;;;5.07;;
65031;SDS011;51593;55.714;37.436;2022-09-28T06:57:28;10.93;;;5.30;;
65031;SDS011;51593;55.714;37.436;2022-09-28T06:59:54;12.68;;;4.70;;
65031;SDS011;51593;55.714;37.436;2022-09-28T07:02:19;6.35;;;3.90;;
65031;SDS011;51593;55.714;37.436;2022-09-28T07:04:49;8.18;;;4.00;;
65031;SDS011;51593;55.714;37.436;2022-09-28T07:07:34;13.38;;;4.10;;
65031;SDS011;51593;55.714;37.436;2022-09-28T07:10:08;6.35;;;3.60;;
65031;SDS011;51593;55.714;37.436;2022-09-28T07:12:42;6.18;;;3.80;;
65031;SDS011;51593;55.714;37.436;2022-09-28T07:15:22;7.25;;;3.95;;
65031;SDS011;51593;55.714;37.436;2022-09-28T07:17:48;6.30;;;3.60;;
65031;SDS011;51593;55.714;37.436;2022-09-28T07:20:14;8.63;;;3.83;;
65031;SDS011;51593;55.714;37.436;2022-09-28T07:22:43;5.90;;;3.83;;
65031;SDS011;51593;55.714;37.436;2022-09-28T07:25:18;7.43;;;3.83;;
65031;SDS011;51593;55.714;37.436;2022-09-28T07:28:14;8.20;;;4.13;;
65031;SDS011;51593;55.714;37.436;2022-09-28T07:31:00;8.75;;;3.70;;
65031;SDS011;51593;55.714;37.436;2022-09-28T07:33:49;6.15;;;3.50;;
65031;SDS011;51593;55.714;37.436;2022-09-28T07:36:27;5.85;;;3.90;;
65031;SDS011;51593;55.714;37.436;2022-09-28T07:38:56;5.95;;;3.30;;
65031;SDS011;51593;55.714;37.436;2022-09-28T07:41:22;6.28;;;3.50;;
65031;SDS011;51593;55.714;37.436;2022-09-28T07:44:00;9.10;;;3.42;;
65031;SDS011;51593;55.714;37.436;2022-09-28T07:46:33;6.72;;;3.40;;
65031;SDS011;51593;55.714;37.436;2022-09-28T07:49:05;7.50;;;3.60;;
65031;SDS011;51593;55.714;37.436;2022-09-28T07:51:51;10.13;;;3.45;;
65031;SDS011;51593;55.714;37.436;2022-09-28T07:54:43;6.47;;;3.40;;
65031;SDS011;51593;55.714;37.436;2022-09-28T07:57:25;7.80;;;3.80;;
65031;SDS011;51593;55.714;37.436;2022-09-28T07:59:59;8.40;;;3.93;;
65031;SDS011;51593;55.714;37.436;2022-09-28T08:02:44;6.22;;;3.80;;
65031;SDS011;51593;55.714;37.436;2022-09-28T08:05:15;11.90;;;3.92;;
65031;SDS011;51593;55.714;37.436;2022-09-28T08:07:41;6.45;;;3.90;;
65031;SDS011;51593;55.714;37.436;2022-09-28T08:10:08;7.13;;;3.40;;
65031;SDS011;51593;55.714;37.436;2022-09-28T08:12:53;6.65;;;3.53;;
65031;SDS011;51593;55.714;37.436;2022-09-28T08:15:45;6.88;;;3.80;;
65031;SDS011;51593;55.714;37.436;2022-09-28T08:18:27;6.60;;;3.80;;
65031;SDS011;51593;55.714;37.436;2022-09-28T08:20:53;6.40;;;3.70;;
65031;SDS011;51593;55.714;37.436;2022-09-28T08:23:37;5.70;;;3.65;;
65031;SDS011;51593;55.714;37.436;2022-09-28T08:26:04;7.15;;;4.22;;
65031;SDS011;51593;55.714;37.436;2022-09-28T08:28:31;6.32;;;4.18;;
65031;SDS011;51593;55.714;37.436;2022-09-28T08:31:01;8.77;;;4.18;;
65031;SDS011;51593;55.714;37.436;2022-09-28T08:33:30;6.72;;;4.18;;
65031;SDS011;51593;55.714;37.436;2022-09-28T08:36:28;7.82;;;4.00;;
65031;SDS011;51593;55.714;37.436;2022-09-28T08:39:00;6.22;;;4.25;;
65031;SDS011;51593;55.714;37.436;2022-09-28T08:44:47;8.45;;;4.07;;
65031;SDS011;51593;55.714;37.436;2022-09-28T08:50:58;18.63;;;4.90;;
65031;SDS011;51593;55.714;37.436;2022-09-28T08:59:14;32.22;;;4.80;;
65031;SDS011;51593;55.714;37.436;2022-09-28T09:01:54;20.35;;;4.15;;
65031;SDS011;51593;55.714;37.436;2022-09-28T09:04:22;9.13;;;4.57;;
65031;SDS011;51593;55.714;37.436;2022-09-28T09:12:40;31.45;;;5.80;;
65031;SDS011;51593;55.714;37.436;2022-09-28T09:23:40;10.50;;;4.43;;
65031;SDS011;51593;55.714;37.436;2022-09-28T09:26:12;12.98;;;4.53;;
65031;SDS011;51593;55.714;37.436;2022-09-28T09:40:27;7.32;;;4.97;;
65031;SDS011;51593;55.714;37.436;2022-09-28T09:47:00;10.90;;;4.72;;
65031;SDS011;51593;55.714;37.436;2022-09-28T09:49:50;6.97;;;4.50;;
65031;SDS011;51593;55.714;37.436;2022-09-28T09:52:52;10.73;;;4.28;;
65031;SDS011;51593;55.714;37.436;2022-09-28T09:58:21;9.15;;;4.13;;
65031;SDS011;51593;55.714;37.436;2022-09-28T10:01:11;9.25;;;4.00;;
65031;SDS011;51593;55.714;37.436;2022-09-28T10:03:59;7.32;;;4.13;;
65031;SDS011;51593;55.714;37.436;2022-09-28T10:06:29;7.18;;;4.18;;
65031;SDS011;51593;55.714;37.436;2022-09-28T10:09:05;8.93;;;4.30;;
65031;SDS011;51593;55.714;37.436;2022-09-28T10:11:44;8.02;;;4.28;;
65031;SDS011;51593;55.714;37.436;2022-09-28T10:14:15;6.07;;;4.25;;
65031;SDS011;51593;55.714;37.436;2022-09-28T10:16:51;7.70;;;4.38;;
65031;SDS011;51593;55.714;37.436;2022-09-28T10:19:36;7.97;;;4.72;;
65031;SDS011;51593;55.714;37.436;2022-09-28T10:22:23;12.38;;;4.40;;
65031;SDS011;51593;55.714;37.436;2022-09-28T10:24:55;8.00;;;4.32;;
65031;SDS011;51593;55.714;37.436;2022-09-28T10:29:54;7.50;;;4.60;;
65031;SDS011;51593;55.714;37.436;2022-09-28T10:32:24;14.77;;;4.75;;
65031;SDS011;51593;55.714;37.436;2022-09-28T10:35:10;9.85;;;4.90;;
65031;SDS011;51593;55.714;37.436;2022-09-28T10:40:46;8.32;;;4.20;;
65031;SDS011;51593;55.714;37.436;2022-09-28T10:43:19;6.35;;;4.13;;
65031;SDS011;51593;55.714;37.436;2022-09-28T10:45:48;6.35;;;3.90;;
65031;SDS011;51593;55.714;37.436;2022-09-28T10:48:30;6.80;;;4.25;;
65031;SDS011;51593;55.714;37.436;2022-09-28T10:51:19;5.38;;;3.75;;
65031;SDS011;51593;55.714;37.436;2022-09-28T10:54:00;8.30;;;4.20;;
65031;SDS011;51593;55.714;37.436;2022-09-28T10:56:43;6.40;;;3.83;;
65031;SDS011;51593;55.714;37.436;2022-09-28T11:04:54;7.63;;;4.18;;
65031;SDS011;51593;55.714;37.436;2022-09-28T11:07:22;8.48;;;3.85;;
65031;SDS011;51593;55.714;37.436;2022-09-28T11:09:52;8.27;;;4.80;;
65031;SDS011;51593;55.714;37.436;2022-09-28T11:12:20;6.43;;;4.20;;
65031;SDS011;51593;55.714;37.436;2022-09-28T11:14:48;8.80;;;3.92;;
65031;SDS011;51593;55.714;37.436;2022-09-28T11:17:31;7.50;;;4.10;;
65031;SDS011;51593;55.714;37.436;2022-09-28T11:22:51;10.20;;;4.18;;
65031;SDS011;51593;55.714;37.436;2022-09-28T11:25:28;7.38;;;4.18;;
65031;SDS011;51593;55.714;37.436;2022-09-28T11:27:55;7.28;;;4.53;;
65031;SDS011;51593;55.714;37.436;2022-09-28T11:33:27;8.27;;;4.57;;
65031;SDS011;51593;55.714;37.436;2022-09-28T11:38:41;10.02;;;4.18;;
65031;SDS011;51593;55.714;37.436;2022-09-28T11:46:47;6.05;;;3.13;;
65031;SDS011;51593;55.714;37.436;2022-09-28T11:49:47;5.00;;;3.08;;
65031;SDS011;51593;55.714;37.436;2022-09-28T11:52:29;4.72;;;2.90;;
65031;SDS011;51593;55.714;37.436;2022-09-28T11:55:04;6.50;;;2.92;;
65031;SDS011;51593;55.714;37.436;2022-09-28T11:57:44;3.78;;;2.70;;
65031;SDS011;51593;55.714;37.436;2022-09-28T12:00:14;6.15;;;2.97;;
65031;SDS011;51593;55.714;37.436;2022-09-28T12:05:19;5.88;;;2.97;;
65031;SDS011;51593;55.714;37.436;2022-09-28T12:13:46;9.10;;;3.60;;
65031;SDS011;51593;55.714;37.436;2022-09-28T12:21:32;7.03;;;3.22;;
65031;SDS011;51593;55.714;37.436;2022-09-28T12:24:02;7.80;;;3.42;;
65031;SDS011;51593;55.714;37.436;2022-09-28T12:26:33;7.78;;;3.40;;
65031;SDS011;51593;55.714;37.436;2022-09-28T12:29:05;4.65;;;2.95;;
65031;SDS011;51593;55.714;37.436;2022-09-28T12:34:27;4.90;;;3.15;;
65031;SDS011;51593;55.714;37.436;2022-09-28T12:47:18;5.85;;;3.33;;
65031;SDS011;51593;55.714;37.436;2022-09-28T13:08:47;5.38;;;3.20;;
65031;SDS011;51593;55.714;37.436;2022-09-28T13:14:04;6.25;;;3.50;;
65031;SDS011;51593;55.714;37.436;2022-09-28T13:17:00;8.10;;;4.00;;
65031;SDS011;51593;55.714;37.436;2022-09-28T13:22:25;8.07;;;3.83;;
65031;SDS011;51593;55.714;37.436;2022-09-28T13:24:55;6.13;;;3.20;;
65031;SDS011;51593;55.714;37.436;2022-09-28T13:27:27;9.02;;;4.00;;
65031;SDS011;51593;55.714;37.436;2022-09-28T13:29:57;6.95;;;3.45;;
65031;SDS011;51593;55.714;37.436;2022-09-28T13:32:28;6.80;;;3.83;;
65031;SDS011;51593;55.714;37.436;2022-09-28T13:34:55;6.57;;;3.80;;
65031;SDS011;51593;55.714;37.436;2022-09-28T13:37:24;9.43;;;3.88;;
65031;SDS011;51593;55.714;37.436;2022-09-28T13:39:51;5.72;;;3.80;;
65031;SDS011;51593;55.714;37.436;2022-09-28T13:44:59;8.02;;;3.83;;
65031;SDS011;51593;55.714;37.436;2022-09-28T13:52:56;9.35;;;4.10;;
65031;SDS011;51593;55.714;37.436;2022-09-28T13:58:01;6.15;;;4.07;;
65031;SDS011;51593;55.714;37.436;2022-09-28T14:11:42;5.85;;;3.88;;
65031;SDS011;51593;55.714;37.436;2022-09-28T14:20:07;8.73;;;3.70;;
65031;SDS011;51593;55.714;37.436;2022-09-28T14:27:59;7.13;;;3.70;;
65031;SDS011;51593;55.714;37.436;2022-09-28T14:30:47;6.18;;;3.63;;
65031;SDS011;51593;55.714;37.436;2022-09-28T14:33:23;7.85;;;4.03;;
65031;SDS011;51593;55.714;37.436;2022-09-28T14:36:00;6.55;;;4.00;;
65031;SDS011;51593;55.714;37.436;2022-09-28T14:41:48;8.95;;;4.38;;
65031;SDS011;51593;55.714;37.436;2022-09-28T14:44:14;10.48;;;4.35;;
65031;SDS011;51593;55.714;37.436;2022-09-28T14:46:43;8.10;;;4.15;;
65031;SDS011;51593;55.714;37.436;2022-09-28T15:06:53;6.20;;;3.80;;
65031;SDS011;51593;55.714;37.436;2022-09-28T15:12:15;10.13;;;4.00;;
65031;SDS011;51593;55.714;37.436;2022-09-28T15:14:48;11.07;;;3.70;;
65031;SDS011;51593;55.714;37.436;2022-09-28T15:20:05;9.38;;;3.95;;
65031;SDS011;51593;55.714;37.436;2022-09-28T15:22:35;6.30;;;3.70;;
65031;SDS011;51593;55.714;37.436;2022-09-28T15:25:03;6.15;;;3.45;;
65031;SDS011;51593;55.714;37.436;2022-09-28T15:27:37;9.23;;;3.63;;
65031;SDS011;51593;55.714;37.436;2022-09-28T15:32:50;7.22;;;3.80;;
65031;SDS011;51593;55.714;37.436;2022-09-28T15:37:48;9.13;;;4.20;;
65031;SDS011;51593;55.714;37.436;2022-09-28T15:40:17;10.63;;;4.22;;
65031;SDS011;51593;55.714;37.436;2022-09-28T15:42:47;9.55;;;3.85;;
65031;SDS011;51593;55.714;37.436;2022-09-28T15:47:40;11.48;;;3.95;;
65031;SDS011;51593;55.714;37.436;2022-09-28T15:55:32;4.85;;;3.05;;
65031;SDS011;51593;55.714;37.436;2022-09-28T16:00:40;5.63;;;3.55;;
65031;SDS011;51593;55.714;37.436;2022-09-28T16:08:12;10.70;;;4.60;;
65031;SDS011;51593;55.714;37.436;2022-09-28T16:10:56;10.48;;;4.20;;
65031;SDS011;51593;55.714;37.436;2022-09-28T16:13:44;7.90;;;3.97;;
65031;SDS011;51593;55.714;37.436;2022-09-28T16:16:18;10.20;;;4.18;;
65031;SDS011;51593;55.714;37.436;2022-09-28T16:18:50;6.63;;;3.90;;
65031;SDS011;51593;55.714;37.436;2022-09-28T16:21:21;8.38;;;4.13;;
65031;SDS011;51593;55.714;37.436;2022-09-28T16:23:51;8.30;;;4.17;;
65031;SDS011;51593;55.714;37.436;2022-09-28T16:26:33;7.63;;;4.20;;
65031;SDS011;51593;55.714;37.436;2022-09-28T16:29:06;6.93;;;4.00;;
65031;SDS011;51593;55.714;37.436;2022-09-28T16:31:34;10.35;;;4.03;;
65031;SDS011;51593;55.714;37.436;2022-09-28T16:34:17;10.85;;;4.43;;
65031;SDS011;51593;55.714;37.436;2022-09-28T16:36:45;8.45;;;4.13;;
65031;SDS011;51593;55.714;37.436;2022-09-28T16:39:12;10.75;;;3.80;;
65031;SDS011;51593;55.714;37.436;2022-09-28T16:41:42;7.68;;;4.10;;
65031;SDS011;51593;55.714;37.436;2022-09-28T16:44:12;6.30;;;3.72;;
65031;SDS011;51593;55.714;37.436;2022-09-28T16:46:40;7.05;;;4.00;;
65031;SDS011;51593;55.714;37.436;2022-09-28T16:49:10;6.32;;;3.97;;
65031;SDS011;51593;55.714;37.436;2022-09-28T16:51:43;7.43;;;4.10;;
65031;SDS011;51593;55.714;37.436;2022-09-28T16:54:14;9.73;;;4.40;;
65031;SDS011;51593;55.714;37.436;2022-09-28T16:57:02;7.78;;;4.30;;
65031;SDS011;51593;55.714;37.436;2022-09-28T16:59:29;7.85;;;4.53;;
65031;SDS011;51593;55.714;37.436;2022-09-28T17:01:54;6.72;;;4.38;;
65031;SDS011;51593;55.714;37.436;2022-09-28T17:04:21;10.75;;;4.32;;
65031;SDS011;51593;55.714;37.436;2022-09-28T17:06:50;9.80;;;4.55;;
65031;SDS011;51593;55.714;37.436;2022-09-28T17:09:21;6.85;;;4.78;;
65031;SDS011;51593;55.714;37.436;2022-09-28T17:11:47;8.07;;;4.88;;
65031;SDS011;51593;55.714;37.436;2022-09-28T17:14:21;8.18;;;4.78;;
65031;SDS011;51593;55.714;37.436;2022-09-28T17:16:48;8.48;;;4.63;;
65031;SDS011;51593;55.714;37.436;2022-09-28T17:21:48;8.00;;;4.47;;
65031;SDS011;51593;55.714;37.436;2022-09-28T17:24:15;6.90;;;4.47;;
65031;SDS011;51593;55.714;37.436;2022-09-28T17:26:42;10.63;;;4.93;;
65031;SDS011;51593;55.714;37.436;2022-09-28T17:29:12;15.80;;;4.45;;
65031;SDS011;51593;55.714;37.436;2022-09-28T17:31:39;9.95;;;4.75;;
65031;SDS011;51593;55.714;37.436;2022-09-28T17:34:10;12.38;;;4.60;;
65031;SDS011;51593;55.714;37.436;2022-09-28T17:36:37;8.35;;;4.40;;
65031;SDS011;51593;55.714;37.436;2022-09-28T17:39:03;8.23;;;4.80;;
65031;SDS011;51593;55.714;37.436;2022-09-28T17:41:29;9.63;;;5.00;;
65031;SDS011;51593;55.714;37.436;2022-09-28T17:43:55;7.88;;;4.60;;
65031;SDS011;51593;55.714;37.436;2022-09-28T17:46:28;7.03;;;4.40;;
65031;SDS011;51593;55.714;37.436;2022-09-28T17:48:55;7.93;;;3.97;;
65031;SDS011;51593;55.714;37.436;2022-09-28T17:51:24;9.40;;;3.95;;
65031;SDS011;51593;55.714;37.436;2022-09-28T17:53:51;8.13;;;3.58;;
65031;SDS011;51593;55.714;37.436;2022-09-28T17:56:18;8.10;;;4.50;;
65031;SDS011;51593;55.714;37.436;2022-09-28T17:58:44;10.43;;;4.15;;
65031;SDS011;51593;55.714;37.436;2022-09-28T18:01:12;8.38;;;4.07;;
65031;SDS011;51593;55.714;37.436;2022-09-28T18:03:38;10.23;;;4.20;;
65031;SDS011;51593;55.714;37.436;2022-09-28T18:06:05;6.63;;;4.05;;
65031;SDS011;51593;55.714;37.436;2022-09-28T18:08:32;6.68;;;3.90;;
65031;SDS011;51593;55.714;37.436;2022-09-28T18:10:58;7.60;;;4.18;;
65031;SDS011;51593;55.714;37.436;2022-09-28T18:13:26;8.65;;;4.07;;
65031;SDS011;51593;55.714;37.436;2022-09-28T18:15:52;7.75;;;4.20;;
65031;SDS011;51593;55.714;37.436;2022-09-28T18:18:19;8.13;;;4.13;;
65031;SDS011;51593;55.714;37.436;2022-09-28T18:20:48;10.10;;;4.60;;
65031;SDS011;51593;55.714;37.436;2022-09-28T18:23:14;8.43;;;4.43;;
65031;SDS011;51593;55.714;37.436;2022-09-28T18:25:40;9.98;;;4.20;;
65031;SDS011;51593;55.714;37.436;2022-09-28T18:28:08;7.30;;;4.43;;
65031;SDS011;51593;55.714;37.436;2022-09-28T18:30:36;7.07;;;4.80;;
65031;SDS011;51593;55.714;37.436;2022-09-28T18:33:03;8.13;;;4.45;;
65031;SDS011;51593;55.714;37.436;2022-09-28T18:35:29;6.28;;;4.40;;
65031;SDS011;51593;55.714;37.436;2022-09-28T18:37:55;7.13;;;4.70;;
65031;SDS011;51593;55.714;37.436;2022-09-28T18:40:21;12.63;;;4.85;;
65031;SDS011;51593;55.714;37.436;2022-09-28T18:42:48;7.80;;;4.75;;
65031;SDS011;51593;55.714;37.436;2022-09-28T18:45:14;7.88;;;4.20;;
65031;SDS011;51593;55.714;37.436;2022-09-28T18:47:42;11.18;;;4.55;;
65031;SDS011;51593;55.714;37.436;2022-09-28T18:50:09;11.05;;;4.70;;
65031;SDS011;51593;55.714;37.436;2022-09-28T18:52:40;8.48;;;4.78;;
65031;SDS011;51593;55.714;37.436;2022-09-28T18:55:07;9.90;;;4.60;;
65031;SDS011;51593;55.714;37.436;2022-09-28T18:57:34;7.97;;;4.13;;
65031;SDS011;51593;55.714;37.436;2022-09-28T19:00:00;6.55;;;4.25;;
65031;SDS011;51593;55.714;37.436;2022-09-28T19:02:29;9.73;;;4.40;;
65031;SDS011;51593;55.714;37.436;2022-09-28T19:04:55;9.85;;;4.80;;
65031;SDS011;51593;55.714;37.436;2022-09-28T19:07:21;8.07;;;4.43;;
65031;SDS011;51593;55.714;37.436;2022-09-28T19:09:47;8.90;;;4.20;;
65031;SDS011;51593;55.714;37.436;2022-09-28T19:12:13;8.30;;;3.90;;